Time;durP1;ratioP1;P1;durP2;ratioP2;P2;SDS_P1;SDS_P2;PMS_P1;PMS_P2;Temp;Humidity;BMP_temperature;BMP_pressure;BME280_temperature;BME280_humidity;BME280_pressure;Samples;Min_cycle;Max_cycle;Signal;HPM_P1;HPM_P2
2022/10/09 00:00:44;;;;;;;6.03;4.03;;;20.70;99.90;;;;;;5091264;28;20031;-78
2022/10/09 00:03:11;;;;;;;7.72;3.08;;;20.60;99.90;;;;;;5093398;28;20020;-78
2022/10/09 00:05:37;;;;;;;6.22;3.20;;;20.60;99.90;;;;;;5093112;28;20036;-77
2022/10/09 00:08:03;;;;;;;5.75;3.40;;;20.50;99.90;;;;;;5092683;28;20047;-78
2022/10/09 00:10:30;;;;;;;5.05;3.00;;;20.50;99.90;;;;;;5093024;28;20036;-78
2022/10/09 00:12:56;;;;;;;7.88;3.53;;;20.40;99.90;;;;;;5092559;28;20103;-77
2022/10/09 00:15:23;;;;;;;6.68;3.30;;;20.40;99.90;;;;;;5092704;28;20150;-78
2022/10/09 00:17:49;;;;;;;5.55;3.70;;;20.40;99.90;;;;;;5092703;28;20119;-78
2022/10/09 00:20:15;;;;;;;7.55;3.15;;;20.20;99.90;;;;;;5092739;28;20031;-78
2022/10/09 00:22:44;;;;;;;6.43;3.45;;;20.20;99.90;;;;;;5092853;28;20107;-78
2022/10/09 00:25:10;;;;;;;6.00;3.60;;;20.20;99.90;;;;;;5092644;28;20036;-78
2022/10/09 00:27:36;;;;;;;7.47;3.42;;;20.20;99.90;;;;;;5092132;28;20125;-78
2022/10/09 00:30:03;;;;;;;8.23;3.70;;;20.10;99.90;;;;;;5092743;28;20056;-78
2022/10/09 00:32:29;;;;;;;6.80;3.53;;;20.10;99.90;;;;;;5092458;28;20035;-78
2022/10/09 00:34:55;;;;;;;7.90;4.13;;;20.10;99.90;;;;;;5092467;28;20028;-79
2022/10/09 00:37:21;;;;;;;6.00;3.72;;;20.10;99.90;;;;;;5092492;28;20073;-79
2022/10/09 00:39:47;;;;;;;8.50;3.90;;;20.10;99.90;;;;;;5091522;28;20036;-78
2022/10/09 00:42:13;;;;;;;9.73;4.25;;;20.10;99.90;;;;;;5092230;28;20432;-78
2022/10/09 00:44:59;;;;;;;7.88;4.10;;;20.10;99.90;;;;;;5092277;28;20032;-79
2022/10/09 00:47:41;;;;;;;8.73;4.53;;;20.10;99.90;;;;;;5092416;28;20024;-79
2022/10/09 00:50:43;;;;;;;9.55;4.45;;;20.10;99.90;;;;;;5092414;28;20054;-78
2022/10/09 00:53:14;;;;;;;8.93;4.10;;;20.10;99.90;;;;;;5090627;28;20113;-78
2022/10/09 00:55:42;;;;;;;9.27;4.60;;;20.10;99.90;;;;;;5092429;28;20028;-78
2022/10/09 00:58:10;;;;;;;9.85;4.63;;;20.10;99.90;;;;;;5091806;28;20115;-78
2022/10/09 01:00:37;;;;;;;9.93;4.57;;;20.10;99.90;;;;;;5092216;28;20499;-78
2022/10/09 01:03:03;;;;;;;8.65;4.65;;;20.20;99.90;;;;;;5091890;28;20095;-77
2022/10/09 01:05:52;;;;;;;14.02;5.32;;;20.10;99.90;;;;;;5092166;28;20028;-78
2022/10/09 01:08:54;;;;;;;12.27;4.90;;;20.10;99.90;;;;;;5092091;28;20051;-79
2022/10/09 01:11:45;;;;;;;8.10;4.80;;;20.10;99.90;;;;;;5091811;28;20024;-79
2022/10/09 01:14:25;;;;;;;8.07;4.65;;;20.10;99.90;;;;;;5092041;28;20061;-78
2022/10/09 01:17:07;;;;;;;8.80;4.43;;;20.10;99.90;;;;;;5090407;28;20177;-78
2022/10/09 01:20:00;;;;;;;9.50;4.80;;;20.10;99.90;;;;;;5092183;28;20473;-78
2022/10/09 01:22:45;;;;;;;9.07;4.90;;;20.10;99.90;;;;;;5092131;28;20422;-78
2022/10/09 01:25:23;;;;;;;8.20;4.45;;;20.10;99.90;;;;;;5092060;28;20035;-78
2022/10/09 01:27:49;;;;;;;7.72;4.22;;;20.10;99.90;;;;;;5091705;28;20101;-78
2022/10/09 01:30:15;;;;;;;9.60;4.43;;;20.10;99.90;;;;;;5091624;28;20032;-78
2022/10/09 01:32:45;;;;;;;6.47;4.50;;;20.00;99.90;;;;;;5091889;28;20079;-78
2022/10/09 01:35:13;;;;;;;9.95;4.72;;;20.00;99.90;;;;;;5091799;28;20024;-78
2022/10/09 01:37:43;;;;;;;9.00;4.45;;;20.10;99.90;;;;;;5092207;28;20107;-79
2022/10/09 01:40:11;;;;;;;9.32;3.88;;;20.10;99.90;;;;;;5091481;28;20369;-78
2022/10/09 01:42:38;;;;;;;6.85;3.60;;;20.20;99.90;;;;;;5092197;28;20089;-75
2022/10/09 01:45:05;;;;;;;8.27;4.00;;;20.20;99.90;;;;;;5096091;28;20040;-77
2022/10/09 01:47:31;;;;;;;6.70;3.90;;;20.30;99.90;;;;;;5090352;28;20040;-78
2022/10/09 01:50:09;;;;;;;6.47;3.95;;;20.30;99.90;;;;;;5092979;28;20063;-79
2022/10/09 01:52:40;;;;;;;6.82;3.67;;;20.30;99.90;;;;;;5106545;28;20502;-78
2022/10/09 01:55:26;;;;;;;6.45;3.40;;;20.30;99.90;;;;;;5115302;28;20030;-79
2022/10/09 01:58:21;;;;;;;9.23;3.42;;;20.30;99.90;;;;;;5100554;28;20039;-77
2022/10/09 02:00:56;;;;;;;8.15;3.65;;;20.30;99.90;;;;;;5107147;28;20445;-79
2022/10/09 02:03:24;;;;;;;8.05;3.58;;;20.30;99.90;;;;;;5112787;28;20027;-78
2022/10/09 02:05:53;;;;;;;8.25;3.90;;;20.20;99.90;;;;;;5105790;28;20080;-78
2022/10/09 02:08:21;;;;;;;7.03;3.40;;;20.20;99.90;;;;;;5115623;28;20072;-78
2022/10/09 02:10:50;;;;;;;7.20;3.20;;;20.20;99.90;;;;;;5115724;28;20028;-78
2022/10/09 02:13:17;;;;;;;6.80;3.22;;;20.20;99.90;;;;;;5115632;28;20020;-78
2022/10/09 02:15:49;;;;;;;;;;;20.20;99.90;;;;;;5115916;28;20024;-78
2022/10/09 02:18:24;;;;;;;8.35;3.30;;;20.20;99.90;;;;;;5114358;28;19912;-78
2022/10/09 02:20:55;;;;;;;7.80;3.30;;;20.20;99.90;;;;;;5115648;28;20022;-79
2022/10/09 02:23:23;;;;;;;6.22;3.10;;;20.20;99.90;;;;;;5115639;28;20042;-78
2022/10/09 02:25:51;;;;;;;5.38;3.17;;;20.20;99.90;;;;;;5115392;28;20024;-78
2022/10/09 02:28:17;;;;;;;5.25;3.05;;;20.20;99.90;;;;;;5115154;28;20096;-78
2022/10/09 02:30:51;;;;;;;4.95;3.30;;;20.20;99.90;;;;;;5115381;28;20028;-78
2022/10/09 02:33:17;;;;;;;7.75;3.53;;;20.10;99.90;;;;;;5115339;28;20027;-78
2022/10/09 02:35:43;;;;;;;6.97;3.75;;;20.10;99.90;;;;;;5115004;28;20043;-79
2022/10/09 02:38:09;;;;;;;5.72;3.33;;;20.10;99.90;;;;;;5115404;28;20387;-78
2022/10/09 02:40:35;;;;;;;6.45;3.55;;;20.10;99.90;;;;;;5115227;28;20526;-77
2022/10/09 02:43:01;;;;;;;4.47;3.38;;;20.20;99.90;;;;;;5114929;28;20035;-77
2022/10/09 02:45:27;;;;;;;8.52;3.67;;;20.10;99.90;;;;;;5115061;28;20485;-77
2022/10/09 02:47:53;;;;;;;5.88;3.30;;;20.20;99.90;;;;;;5113372;28;20092;-77
2022/10/09 02:50:19;;;;;;;6.25;3.47;;;20.20;99.90;;;;;;5115219;28;20042;-77
2022/10/09 02:52:45;;;;;;;3.92;2.92;;;20.20;99.90;;;;;;5114805;28;20479;-78
2022/10/09 02:55:12;;;;;;;5.38;3.20;;;20.20;99.90;;;;;;5115159;28;20028;-78
2022/10/09 02:57:38;;;;;;;6.07;3.28;;;20.20;99.90;;;;;;5113252;28;20536;-78
2022/10/09 03:00:04;;;;;;;10.15;3.92;;;20.20;99.90;;;;;;5114603;28;20035;-78
2022/10/09 03:02:30;;;;;;;5.57;3.45;;;20.10;99.90;;;;;;5113743;27;20047;-78
2022/10/09 03:04:56;;;;;;;7.55;3.75;;;20.10;99.90;;;;;;5114694;28;20424;-78
2022/10/09 03:07:22;;;;;;;5.15;3.25;;;20.10;99.90;;;;;;5114595;28;20093;-79
2022/10/09 03:09:48;;;;;;;6.45;3.30;;;20.10;99.90;;;;;;5114897;28;20103;-78
2022/10/09 03:12:19;;;;;;;5.18;3.50;;;20.00;99.90;;;;;;5114569;28;20114;-78
2022/10/09 03:14:46;;;;;;;6.80;3.65;;;20.10;99.90;;;;;;5114750;28;20024;-78
2022/10/09 03:17:37;;;;;;;4.72;3.42;;;20.10;99.90;;;;;;5114567;28;20346;-79
2022/10/09 03:20:03;;;;;;;5.43;3.53;;;20.10;99.90;;;;;;5114516;28;20027;-78
2022/10/09 03:22:29;;;;;;;5.70;3.70;;;20.10;99.90;;;;;;5114664;28;20140;-78
2022/10/09 03:24:55;;;;;;;5.80;3.50;;;20.10;99.90;;;;;;5114625;28;20135;-79
2022/10/09 03:27:21;;;;;;;6.65;3.42;;;20.00;99.90;;;;;;5113927;28;20028;-78
2022/10/09 03:29:47;;;;;;;8.27;3.95;;;20.00;99.90;;;;;;5114573;28;20024;-79
2022/10/09 03:32:13;;;;;;;6.72;4.18;;;20.00;99.90;;;;;;5114354;28;20106;-78
2022/10/09 03:34:39;;;;;;;5.55;3.60;;;20.00;99.90;;;;;;5114217;28;20023;-78
2022/10/09 03:37:05;;;;;;;6.90;3.80;;;20.00;99.90;;;;;;5114176;28;20057;-78
2022/10/09 03:39:31;;;;;;;7.75;3.80;;;19.90;99.90;;;;;;5114347;28;20028;-78
2022/10/09 03:41:58;;;;;;;;;;;20.00;99.90;;;;;;5114193;28;20028;-78
2022/10/09 03:44:24;;;;;;;5.00;3.67;;;19.90;99.90;;;;;;5114214;28;19908;-78
2022/10/09 03:46:51;;;;;;;8.07;3.92;;;19.90;99.90;;;;;;5113834;28;20042;-78
2022/10/09 03:49:17;;;;;;;6.85;3.60;;;19.90;99.90;;;;;;5114013;28;20023;-79
2022/10/09 03:51:43;;;;;;;6.57;4.32;;;20.00;99.90;;;;;;5113747;28;20088;-78
2022/10/09 03:54:09;;;;;;;8.02;3.97;;;19.90;99.90;;;;;;5113888;28;20477;-78
2022/10/09 03:56:35;;;;;;;8.40;3.97;;;19.90;99.90;;;;;;5113881;28;20026;-78
2022/10/09 03:59:04;;;;;;;5.25;4.00;;;19.90;99.90;;;;;;5113501;28;20067;-78
2022/10/09 04:01:30;;;;;;;7.10;3.80;;;19.90;99.90;;;;;;5113610;28;20022;-78
2022/10/09 04:03:56;;;;;;;8.75;4.45;;;19.80;99.90;;;;;;5113562;28;20023;-78
2022/10/09 04:06:22;;;;;;;11.90;4.22;;;19.80;99.90;;;;;;5113391;28;20016;-78
2022/10/09 04:08:48;;;;;;;5.90;3.85;;;19.80;99.90;;;;;;5113709;28;20454;-78
2022/10/09 04:11:14;;;;;;;5.32;4.20;;;19.80;99.90;;;;;;5113576;28;20066;-78
2022/10/09 04:13:40;;;;;;;8.40;4.45;;;19.80;99.90;;;;;;5113199;28;20360;-78
2022/10/09 04:16:11;;;;;;;7.00;4.07;;;19.90;99.90;;;;;;5111628;28;20422;-78
2022/10/09 04:18:43;;;;;;;5.90;4.43;;;19.80;99.90;;;;;;5113620;28;20035;-79
2022/10/09 04:21:11;;;;;;;7.43;4.32;;;19.70;99.90;;;;;;5113426;28;20031;-78
2022/10/09 04:23:38;;;;;;;6.25;4.30;;;19.80;99.90;;;;;;5113346;28;20087;-78
2022/10/09 04:26:04;;;;;;;;;;;19.80;99.90;;;;;;5113730;28;20414;-78
2022/10/09 04:28:31;;;;;;;6.90;3.85;;;19.80;99.90;;;;;;5112702;28;19963;-78
2022/10/09 04:30:58;;;;;;;5.97;4.03;;;19.90;99.90;;;;;;5112830;28;20062;-78
2022/10/09 04:33:25;;;;;;;6.00;4.57;;;19.90;99.90;;;;;;5113002;28;20047;-78
2022/10/09 04:35:52;;;;;;;6.38;4.03;;;19.90;99.90;;;;;;5112784;28;20024;-78
2022/10/09 04:38:19;;;;;;;5.85;4.00;;;19.90;99.90;;;;;;5113039;28;20451;-77
2022/10/09 04:40:58;;;;;;;5.80;4.00;;;19.90;99.90;;;;;;5113005;28;20027;-78
2022/10/09 04:43:24;;;;;;;7.00;4.00;;;19.90;99.90;;;;;;5112197;28;20344;-78
2022/10/09 04:45:50;;;;;;;5.55;3.85;;;19.90;99.90;;;;;;5113164;28;20026;-78
2022/10/09 04:48:16;;;;;;;7.78;4.38;;;19.90;99.90;;;;;;5112519;28;20027;-78
2022/10/09 04:50:42;;;;;;;6.07;4.53;;;19.90;99.90;;;;;;5112635;28;20468;-79
2022/10/09 04:53:08;;;;;;;8.77;4.18;;;19.90;99.90;;;;;;5112441;28;20028;-79
2022/10/09 04:55:41;;;;;;;6.18;4.25;;;19.90;99.90;;;;;;5112880;28;20085;-78
2022/10/09 04:58:09;;;;;;;7.55;4.65;;;19.90;99.90;;;;;;5112551;28;20061;-77
2022/10/09 05:00:40;;;;;;;7.68;4.18;;;19.80;99.90;;;;;;5112499;28;20122;-78
2022/10/09 05:03:06;;;;;;;9.65;4.35;;;19.80;99.90;;;;;;5112199;28;20108;-78
2022/10/09 05:05:32;;;;;;;7.10;4.35;;;19.80;99.90;;;;;;5112661;28;20034;-78
2022/10/09 05:07:58;;;;;;;7.50;4.22;;;19.70;99.90;;;;;;5112381;28;20020;-78
2022/10/09 05:10:24;;;;;;;8.18;5.00;;;19.70;99.90;;;;;;5112654;28;20039;-77
2022/10/09 05:12:50;;;;;;;7.50;4.20;;;19.70;99.90;;;;;;5112661;28;20325;-78
2022/10/09 05:15:17;;;;;;;6.90;4.20;;;19.80;99.90;;;;;;5112698;28;20020;-78
2022/10/09 05:17:43;;;;;;;7.65;4.78;;;19.80;99.90;;;;;;5112467;28;20027;-79
2022/10/09 05:20:09;;;;;;;7.20;3.97;;;19.70;99.90;;;;;;5112292;28;20041;-78
2022/10/09 05:22:35;;;;;;;5.60;3.50;;;19.80;99.90;;;;;;5112321;28;20103;-78
2022/10/09 05:25:02;;;;;;;5.03;4.10;;;20.00;99.90;;;;;;5111259;28;20118;-78
2022/10/09 05:27:28;;;;;;;9.38;4.00;;;20.10;99.90;;;;;;5111964;28;20047;-78
2022/10/09 05:29:54;;;;;;;10.40;4.20;;;20.20;99.90;;;;;;5112089;28;20437;-79
2022/10/09 05:32:20;;;;;;;8.95;4.20;;;20.20;99.90;;;;;;5111665;28;20028;-78
2022/10/09 05:34:46;;;;;;;6.57;4.18;;;20.20;99.90;;;;;;5111829;28;20019;-78
2022/10/09 05:37:12;;;;;;;8.77;4.28;;;20.30;99.90;;;;;;5111551;28;20035;-79
2022/10/09 05:39:38;;;;;;;7.72;4.38;;;20.40;99.90;;;;;;5111702;28;20028;-78
2022/10/09 05:42:04;;;;;;;7.65;4.63;;;20.70;99.90;;;;;;5111951;28;20028;-77
2022/10/09 05:44:30;;;;;;;5.40;4.03;;;20.90;99.90;;;;;;5110192;28;20063;-78
2022/10/09 05:46:56;;;;;;;8.52;3.50;;;21.30;99.90;;;;;;5111772;28;20325;-79
2022/10/09 05:49:23;;;;;;;7.82;4.03;;;21.50;99.90;;;;;;5110097;28;20020;-78
2022/10/09 05:51:49;;;;;;;9.60;4.15;;;21.80;99.90;;;;;;5111648;28;20036;-78
2022/10/09 05:54:16;;;;;;;7.30;3.30;;;22.30;99.90;;;;;;5111920;28;20020;-77
2022/10/09 05:56:44;;;;;;;5.30;2.90;;;22.80;99.90;;;;;;5110288;28;20126;-77
2022/10/09 05:59:13;;;;;;;6.05;2.40;;;23.30;99.90;;;;;;5110227;28;20035;-80
2022/10/09 06:01:42;;;;;;;7.55;2.20;;;24.10;99.90;;;;;;5111588;28;20135;-78
2022/10/09 06:04:12;;;;;;;5.15;2.53;;;24.70;99.90;;;;;;5111775;28;20137;-76
2022/10/09 06:06:39;;;;;;;6.97;2.30;;;25.20;99.90;;;;;;5112188;28;20107;-79
2022/10/09 06:09:07;;;;;;;7.55;2.70;;;25.60;99.90;;;;;;5111912;28;20110;-76
2022/10/09 06:11:36;;;;;;;5.28;2.47;;;25.70;99.90;;;;;;5111675;28;20051;-76
2022/10/09 06:14:06;;;;;;;10.32;2.80;;;25.70;99.90;;;;;;5112058;28;20478;-75
2022/10/09 06:16:35;;;;;;;7.50;2.78;;;25.40;99.90;;;;;;5111819;28;20480;-77
2022/10/09 06:19:01;;;;;;;6.03;2.88;;;24.60;99.90;;;;;;5112334;28;20070;-77
2022/10/09 06:21:28;;;;;;;6.85;3.10;;;23.90;99.90;;;;;;5111299;28;20024;-76
2022/10/09 06:23:57;;;;;;;9.80;3.15;;;23.20;99.90;;;;;;5111910;28;20087;-76
2022/10/09 06:26:24;;;;;;;7.65;3.45;;;22.80;99.90;;;;;;5111997;28;20019;-76
2022/10/09 06:28:51;;;;;;;8.68;3.45;;;22.40;99.90;;;;;;5111526;28;20043;-78
2022/10/09 06:31:27;;;;;;;7.80;4.13;;;22.10;99.90;;;;;;5111599;28;20024;-76
2022/10/09 06:33:54;;;;;;;7.22;3.97;;;22.00;99.90;;;;;;5111773;28;20119;-77
2022/10/09 06:36:22;;;;;;;10.52;4.72;;;21.90;99.90;;;;;;5111631;28;20496;-77
2022/10/09 06:38:49;;;;;;;6.70;4.20;;;21.80;99.90;;;;;;5116072;28;20103;-74
2022/10/09 06:41:17;;;;;;;7.60;4.15;;;21.70;99.90;;;;;;5115519;27;20106;-76
2022/10/09 06:43:52;;;;;;;7.93;4.18;;;21.60;99.90;;;;;;5115564;28;20027;-75
2022/10/09 06:46:19;;;;;;;7.72;4.60;;;21.40;99.90;;;;;;5116122;28;20358;-75
2022/10/09 06:48:46;;;;;;;9.55;4.72;;;21.40;99.90;;;;;;5114441;28;20423;-76
2022/10/09 06:51:17;;;;;;;5.88;4.07;;;21.30;99.90;;;;;;5115527;28;20024;-75
2022/10/09 06:53:46;;;;;;;9.32;4.18;;;21.70;99.90;;;;;;5113787;28;20036;-76
2022/10/09 06:56:13;;;;;;;7.45;4.00;;;22.00;99.90;;;;;;5115151;28;20107;-77
2022/10/09 06:58:40;;;;;;;9.15;4.10;;;22.10;99.90;;;;;;5114841;28;20056;-77
2022/10/09 07:01:12;;;;;;;8.05;3.83;;;22.00;99.90;;;;;;5114883;28;20020;-77
2022/10/09 07:03:40;;;;;;;10.07;4.35;;;21.80;99.90;;;;;;5114733;28;20098;-77
2022/10/09 07:06:12;;;;;;;7.68;4.15;;;21.70;99.90;;;;;;5114700;28;20081;-76
2022/10/09 07:08:40;;;;;;;7.25;4.13;;;21.60;99.90;;;;;;5115213;28;20417;-77
2022/10/09 07:11:22;;;;;;;6.00;3.80;;;21.60;99.90;;;;;;5113194;28;20023;-77
2022/10/09 07:13:50;;;;;;;7.70;4.10;;;21.70;99.90;;;;;;5114604;28;20027;-77
2022/10/09 07:16:22;;;;;;;6.47;4.30;;;21.80;99.90;;;;;;5113322;28;20095;-79
2022/10/09 07:18:48;;;;;;;7.57;4.32;;;22.00;99.90;;;;;;5114614;28;20467;-79
2022/10/09 07:21:15;;;;;;;9.65;4.75;;;22.20;99.90;;;;;;5114457;28;20028;-76
2022/10/09 07:23:41;;;;;;;12.27;4.50;;;22.50;99.90;;;;;;5114533;28;20371;-77
2022/10/09 07:26:09;;;;;;;;;;;22.70;99.90;;;;;;5114901;28;20498;-77
2022/10/09 07:28:35;;;;;;;8.38;4.20;;;22.80;99.90;;;;;;5114087;28;20004;-77
2022/10/09 07:31:02;;;;;;;7.78;3.80;;;23.10;99.90;;;;;;5114424;28;20099;-77
2022/10/09 07:33:28;;;;;;;5.50;3.63;;;23.40;99.90;;;;;;5114139;28;20106;-77
2022/10/09 07:35:56;;;;;;;10.25;3.58;;;23.80;99.90;;;;;;5114473;28;20103;-80
2022/10/09 07:38:25;;;;;;;7.40;3.50;;;24.20;99.90;;;;;;5114049;28;20123;-79
2022/10/09 07:40:52;;;;;;;7.00;3.70;;;24.30;99.90;;;;;;5114327;28;20409;-77
2022/10/09 07:43:18;;;;;;;7.10;3.28;;;24.30;99.90;;;;;;5114231;28;20019;-80
2022/10/09 07:45:45;;;;;;;;;;;24.60;99.90;;;;;;5114970;28;20024;-77
2022/10/09 07:48:11;;;;;;;6.05;3.15;;;25.00;99.90;;;;;;5113492;28;19904;-77
2022/10/09 07:50:37;;;;;;;9.68;3.80;;;25.50;99.90;;;;;;5113549;28;20031;-78
2022/10/09 07:53:03;;;;;;;10.40;3.00;;;25.90;99.90;;;;;;5113595;28;20023;-78
2022/10/09 07:55:29;;;;;;;4.75;2.88;;;26.00;99.90;;;;;;5113012;28;20471;-78
2022/10/09 07:57:55;;;;;;;8.23;3.03;;;26.10;99.90;;;;;;5111522;28;20054;-80
2022/10/09 08:00:21;;;;;;;8.48;3.15;;;26.20;99.90;;;;;;5113337;28;20028;-78
2022/10/09 08:02:47;;;;;;;8.02;2.75;;;26.30;99.90;;;;;;5113693;28;20077;-78
2022/10/09 08:05:13;;;;;;;7.35;2.90;;;26.40;99.90;;;;;;5111897;28;20073;-79
2022/10/09 08:07:39;;;;;;;8.07;2.70;;;26.60;99.90;;;;;;5113067;28;20023;-80
2022/10/09 08:10:06;;;;;;;5.85;2.45;;;26.90;99.90;;;;;;5113276;28;20103;-79
2022/10/09 08:12:31;;;;;;;;;;;27.20;99.90;;;;;;5113540;28;20023;-79
2022/10/09 08:14:57;;;;;;;6.88;2.83;;;27.20;99.90;;;;;;5112793;28;19904;-79
2022/10/09 08:17:23;;;;;;;9.45;3.22;;;27.00;99.90;;;;;;5112861;28;20055;-79
2022/10/09 08:19:49;;;;;;;5.82;2.60;;;26.70;99.90;;;;;;5113351;28;20028;-79
2022/10/09 08:22:15;;;;;;;7.43;2.45;;;26.80;99.90;;;;;;5113655;28;20127;-79
2022/10/09 08:24:41;;;;;;;6.72;2.80;;;26.90;99.90;;;;;;5113388;28;20067;-79
2022/10/09 08:27:07;;;;;;;9.60;2.60;;;27.20;99.90;;;;;;5113481;28;20075;-81
2022/10/09 08:29:33;;;;;;;5.93;2.78;;;27.40;99.90;;;;;;5112879;28;20123;-79
2022/10/09 08:31:59;;;;;;;5.72;2.78;;;27.70;99.90;;;;;;5111534;28;20196;-80
2022/10/09 08:34:25;;;;;;;6.20;2.65;;;28.00;99.90;;;;;;5111664;28;20020;-80
2022/10/09 08:36:51;;;;;;;5.72;2.45;;;28.10;99.90;;;;;;5113286;28;20055;-80
2022/10/09 08:39:29;;;;;;;8.45;3.00;;;28.30;99.90;;;;;;5112926;28;20135;-81
2022/10/09 08:42:00;;;;;;;9.40;3.17;;;27.60;99.90;;;;;;5113147;28;20368;-80
2022/10/09 08:44:37;;;;;;;4.95;2.40;;;27.20;99.90;;;;;;5112097;28;20024;-80
2022/10/09 08:47:03;;;;;;;4.20;2.28;;;27.40;99.90;;;;;;5113026;28;20023;-80
2022/10/09 08:49:50;;;;;;;8.45;2.70;;;27.50;99.90;;;;;;5112602;28;20038;-80
2022/10/09 08:52:40;;;;;;;7.53;2.92;;;27.30;99.90;;;;;;5112045;28;20023;-81
2022/10/09 08:55:18;;;;;;;9.00;3.00;;;27.10;99.90;;;;;;5110479;28;20023;-78
2022/10/09 08:57:48;;;;;;;6.65;2.75;;;27.20;99.90;;;;;;5112227;28;20024;-79
2022/10/09 09:00:42;;;;;;;5.95;2.10;;;27.30;99.90;;;;;;5111641;28;20110;-81
2022/10/09 09:03:30;;;;;;;7.10;2.55;;;27.20;99.90;;;;;;5102716;28;20042;-75
2022/10/09 09:06:26;;;;;;;6.20;2.20;;;26.80;99.90;;;;;;5112352;28;20023;-74
2022/10/09 09:09:06;;;;;;;6.82;2.30;;;27.00;99.90;;;;;;5111724;28;20028;-75
2022/10/09 09:11:47;;;;;;;8.30;2.53;;;26.80;99.90;;;;;;5112358;28;20127;-74
2022/10/09 09:14:29;;;;;;;4.35;2.33;;;26.90;99.90;;;;;;5111888;28;20412;-75
2022/10/09 09:17:22;;;;;;;5.97;2.10;;;27.30;99.90;;;;;;5111797;28;20033;-74
2022/10/09 09:20:12;;;;;;;8.48;2.35;;;27.50;99.90;;;;;;5110381;28;20032;-74
2022/10/09 09:22:41;;;;;;;6.30;2.50;;;27.30;99.90;;;;;;5111967;28;20024;-74
2022/10/09 09:25:30;;;;;;;5.32;2.47;;;27.20;99.90;;;;;;5111424;28;20027;-77
2022/10/09 09:28:11;;;;;;;8.63;2.35;;;27.10;99.90;;;;;;5111515;28;20139;-79
2022/10/09 09:30:46;;;;;;;8.05;2.10;;;27.30;99.90;;;;;;5111980;28;20055;-77
2022/10/09 09:33:22;;;;;;;5.85;2.40;;;27.40;99.90;;;;;;5111856;28;20468;-76
2022/10/09 09:36:08;;;;;;;5.82;2.38;;;27.30;99.90;;;;;;5111545;28;20027;-76
2022/10/09 09:38:35;;;;;;;8.05;2.40;;;27.20;99.90;;;;;;5111504;28;20063;-76
2022/10/09 09:41:03;;;;;;;4.65;2.45;;;27.50;99.90;;;;;;5111755;28;20020;-74
2022/10/09 09:43:29;;;;;;;6.85;2.47;;;27.60;99.90;;;;;;5111457;28;20031;-75
2022/10/09 09:45:57;;;;;;;6.38;2.15;;;27.80;99.90;;;;;;5111522;28;20015;-75
2022/10/09 09:48:41;;;;;;;4.40;1.70;;;27.80;99.90;;;;;;5109789;28;20035;-76
2022/10/09 09:51:18;;;;;;;9.18;2.20;;;27.90;99.90;;;;;;5111781;28;20382;-77
2022/10/09 09:53:49;;;;;;;4.88;2.05;;;27.80;99.90;;;;;;5111755;28;20030;-77
2022/10/09 09:56:16;;;;;;;4.50;2.00;;;27.80;99.90;;;;;;5111889;28;20027;-76
2022/10/09 09:58:48;;;;;;;7.38;2.38;;;28.00;99.90;;;;;;5111620;28;20036;-76
2022/10/09 10:01:26;;;;;;;7.57;2.78;;;28.20;99.90;;;;;;5111785;28;20040;-76
2022/10/09 10:03:56;;;;;;;5.15;2.15;;;28.30;99.90;;;;;;5111468;28;20069;-76
2022/10/09 10:06:31;;;;;;;9.40;2.15;;;28.40;99.90;;;;;;5111402;28;20044;-76
2022/10/09 10:09:18;;;;;;;4.70;1.90;;;28.40;99.90;;;;;;5111496;28;20439;-76
2022/10/09 10:11:58;;;;;;;7.82;2.00;;;28.30;99.90;;;;;;5113374;28;20107;-78
2022/10/09 10:14:25;;;;;;;5.43;1.75;;;28.00;99.90;;;;;;5113833;28;20119;-78
2022/10/09 10:16:53;;;;;;;7.72;1.90;;;28.10;99.90;;;;;;5115362;28;20447;-77
2022/10/09 10:19:24;;;;;;;7.05;2.00;;;27.90;99.90;;;;;;5115537;28;20043;-78
2022/10/09 10:21:59;;;;;;;5.85;2.08;;;28.00;99.90;;;;;;5115339;28;20393;-76
2022/10/09 10:24:49;;;;;;;6.37;2.33;;;27.90;99.90;;;;;;5113738;28;20465;-77
2022/10/09 10:27:36;;;;;;;5.47;1.90;;;28.20;99.90;;;;;;5115066;28;20088;-76
2022/10/09 10:30:05;;;;;;;4.35;1.85;;;28.40;99.90;;;;;;5115301;28;20028;-77
2022/10/09 10:32:43;;;;;;;4.88;1.90;;;28.60;99.90;;;;;;5115110;28;20190;-77
2022/10/09 10:35:19;;;;;;;5.85;1.98;;;28.80;99.90;;;;;;5113424;28;20053;-77
2022/10/09 10:38:12;;;;;;;5.72;2.30;;;28.80;99.90;;;;;;5114774;28;20076;-76
2022/10/09 10:40:48;;;;;;;4.28;1.73;;;28.60;99.90;;;;;;5099545;28;20460;-75
2022/10/09 10:43:32;;;;;;;5.35;1.85;;;28.20;99.90;;;;;;5114956;28;20094;-75
2022/10/09 10:46:14;;;;;;;5.70;1.80;;;28.30;99.90;;;;;;5114850;28;20039;-73
2022/10/09 10:48:45;;;;;;;4.30;2.05;;;28.10;99.90;;;;;;5114788;28;20027;-74
2022/10/09 10:51:52;;;;;;;6.78;2.28;;;28.00;99.90;;;;;;5114850;28;20015;-74
2022/10/09 10:54:56;;;;;;;6.90;2.05;;;28.00;99.90;;;;;;5114703;28;20023;-75
2022/10/09 10:57:54;;;;;;;5.68;2.03;;;27.90;99.90;;;;;;5112749;28;20092;-72
2022/10/09 11:00:20;;;;;;;5.78;2.30;;;27.90;99.90;;;;;;5114890;28;20028;-74
2022/10/09 11:03:04;;;;;;;6.05;2.10;;;27.80;99.90;;;;;;5114278;28;20038;-74
2022/10/09 11:05:50;;;;;;;8.57;2.35;;;27.80;99.90;;;;;;5114496;28;20035;-74
2022/10/09 11:08:23;;;;;;;4.85;2.08;;;27.70;99.90;;;;;;5112665;28;20030;-75
2022/10/09 11:11:32;;;;;;;7.97;2.15;;;27.40;99.90;;;;;;5114493;28;20478;-74
2022/10/09 11:14:15;;;;;;;6.93;1.95;;;27.30;99.90;;;;;;5114125;28;20177;-75
2022/10/09 11:17:05;;;;;;;6.07;1.70;;;27.20;99.90;;;;;;5114043;28;20166;-76
2022/10/09 11:20:02;;;;;;;6.65;2.10;;;27.20;99.90;;;;;;5114326;28;20122;-74
2022/10/09 11:22:44;;;;;;;5.20;1.92;;;27.10;99.90;;;;;;5113729;28;20064;-75
2022/10/09 11:25:41;;;;;;;10.68;2.20;;;27.10;99.90;;;;;;5113708;28;20050;-72
2022/10/09 11:28:30;;;;;;;6.13;1.90;;;26.80;99.90;;;;;;5113994;28;20050;-74
2022/10/09 11:31:25;;;;;;;7.30;2.13;;;26.60;99.90;;;;;;5114193;28;20016;-74
2022/10/09 11:33:59;;;;;;;7.63;2.03;;;26.90;99.90;;;;;;5114058;28;20034;-74
2022/10/09 11:36:42;;;;;;;6.25;2.38;;;27.10;99.90;;;;;;5114004;28;20024;-74
2022/10/09 11:39:22;;;;;;;5.18;2.00;;;27.20;99.90;;;;;;5113687;28;20038;-74
2022/10/09 11:41:52;;;;;;;13.98;2.38;;;27.00;99.90;;;;;;5114051;28;20144;-75
2022/10/09 11:44:30;;;;;;;9.40;2.25;;;26.90;99.90;;;;;;5114104;28;20020;-74
2022/10/09 11:47:05;;;;;;;5.97;2.03;;;27.00;99.90;;;;;;5113962;28;20020;-74
2022/10/09 11:49:37;;;;;;;4.20;1.92;;;26.90;99.90;;;;;;5114122;28;20023;-74
2022/10/09 11:52:15;;;;;;;7.97;2.33;;;27.10;99.90;;;;;;5114056;28;20435;-74
2022/10/09 11:54:42;;;;;;;8.60;2.22;;;27.20;99.90;;;;;;5113896;28;20024;-74
2022/10/09 11:57:08;;;;;;;6.05;2.10;;;27.20;99.90;;;;;;5113381;28;20027;-74
2022/10/09 11:59:35;;;;;;;;;;;27.00;99.90;;;;;;5113751;28;20042;-74
2022/10/09 12:02:26;;;;;;;3.67;1.90;;;27.20;99.90;;;;;;5111873;28;19904;-74
2022/10/09 12:04:53;;;;;;;7.35;1.98;;;27.30;99.90;;;;;;5113465;28;20138;-74
2022/10/09 12:07:38;;;;;;;7.97;2.30;;;27.50;99.90;;;;;;5111702;28;20167;-77
2022/10/09 12:10:26;;;;;;;8.32;2.10;;;27.60;99.90;;;;;;5112978;28;20031;-76
2022/10/09 12:13:05;;;;;;;6.60;2.00;;;27.70;99.90;;;;;;5112897;28;20075;-75
2022/10/09 12:15:49;;;;;;;7.47;2.00;;;27.70;99.90;;;;;;5113295;28;20030;-75
2022/10/09 12:18:41;;;;;;;9.43;1.77;;;27.70;99.90;;;;;;5113329;28;20030;-75
2022/10/09 12:21:23;;;;;;;7.15;2.13;;;27.50;99.90;;;;;;5113039;28;20135;-75
2022/10/09 12:23:50;;;;;;;6.82;1.83;;;27.40;99.90;;;;;;5113335;28;20031;-76
2022/10/09 12:26:26;;;;;;;5.55;1.95;;;27.60;99.90;;;;;;5111339;28;20387;-75
2022/10/09 12:28:59;;;;;;;5.57;2.17;;;27.60;99.90;;;;;;5112720;28;20043;-75
2022/10/09 12:31:32;;;;;;;5.28;1.85;;;27.70;99.90;;;;;;5113160;28;20440;-75
2022/10/09 12:34:19;;;;;;;6.22;2.22;;;27.90;99.90;;;;;;5112419;28;20036;-76
2022/10/09 12:36:45;;;;;;;5.07;1.92;;;28.10;99.90;;;;;;5111108;28;20030;-77
2022/10/09 12:39:19;;;;;;;5.72;1.77;;;27.90;99.90;;;;;;5111097;28;20031;-77
2022/10/09 12:41:49;;;;;;;6.43;2.05;;;27.80;99.90;;;;;;5111494;28;20111;-77
2022/10/09 12:44:27;;;;;;;4.70;1.90;;;27.80;99.90;;;;;;5113315;28;20410;-76
2022/10/09 12:46:53;;;;;;;4.88;1.52;;;28.00;99.90;;;;;;5112837;28;20062;-74
2022/10/09 12:49:20;;;;;;;;;;;28.00;99.90;;;;;;5112856;28;20550;-76
2022/10/09 12:51:52;;;;;;;6.75;2.15;;;28.20;99.90;;;;;;5112603;28;19908;-78
2022/10/09 12:54:18;;;;;;;7.43;1.88;;;28.10;99.90;;;;;;5112247;28;20023;-76
2022/10/09 12:56:47;;;;;;;7.80;1.98;;;28.20;99.90;;;;;;5112726;28;20020;-76
2022/10/09 12:59:15;;;;;;;7.40;2.10;;;28.00;99.90;;;;;;5120342;22;20063;-76
2022/10/09 13:01:42;;;;;;;5.85;2.05;;;28.00;99.90;;;;;;5132585;27;20039;-78
2022/10/09 13:04:30;;;;;;;7.03;1.80;;;27.90;99.90;;;;;;5132475;27;20050;-77
2022/10/09 13:07:13;;;;;;;8.60;2.00;;;27.80;99.90;;;;;;5113934;27;20339;-76
2022/10/09 13:09:40;;;;;;;7.55;2.03;;;27.80;99.90;;;;;;5132695;27;20027;-76
2022/10/09 13:12:26;;;;;;;4.90;1.80;;;27.10;99.90;;;;;;5132500;27;20054;-77